createdAt,value
2019-03-24T00:00:58.384Z,103224.00
2019-03-24T00:02:33.832Z,103210.00
2019-03-24T00:04:09.231Z,103227.00
2019-03-24T00:05:44.622Z,103227.00
2019-03-24T00:07:20.016Z,103220.00
2019-03-24T00:08:55.408Z,103216.00
2019-03-24T00:10:31.096Z,103221.00
2019-03-24T00:12:06.481Z,103220.00
2019-03-24T00:13:43.099Z,103218.00
2019-03-24T00:15:26.179Z,103212.00
2019-03-24T00:16:55.572Z,103202.00
2019-03-24T00:18:30.966Z,103216.00
2019-03-24T00:20:10.358Z,103225.00
2019-03-24T00:21:45.861Z,103217.00
2019-03-24T00:23:21.261Z,103223.00
2019-03-24T00:24:56.648Z,103214.00
2019-03-24T00:26:33.015Z,103212.00
2019-03-24T00:28:09.475Z,103222.00
2019-03-24T00:29:44.875Z,103210.00
2019-03-24T00:31:20.256Z,103215.00
2019-03-24T00:32:55.640Z,103205.00
2019-03-24T00:34:31.027Z,103208.00
2019-03-24T00:36:06.409Z,103212.00
2019-03-24T00:37:41.806Z,103205.00
2019-03-24T00:39:17.271Z,103205.00
2019-03-24T00:40:52.917Z,103205.00
2019-03-24T00:42:28.297Z,103194.00
2019-03-24T00:44:03.690Z,103201.00
2019-03-24T00:45:39.070Z,103197.00
2019-03-24T00:47:14.494Z,103188.00
2019-03-24T00:48:49.944Z,103199.00
2019-03-24T00:50:25.330Z,103192.00
2019-03-24T00:52:00.725Z,103193.00
2019-03-24T00:53:36.115Z,103197.00
2019-03-24T00:55:11.824Z,103193.00
2019-03-24T00:56:47.203Z,103200.00
2019-03-24T00:58:22.589Z,103189.00
2019-03-24T00:59:57.991Z,103187.00
2019-03-24T01:01:33.376Z,103194.00
2019-03-24T01:03:08.762Z,103195.00
2019-03-24T01:04:44.534Z,103186.00
2019-03-24T01:06:19.873Z,103186.00
2019-03-24T01:07:55.754Z,103187.00
2019-03-24T01:09:31.488Z,103189.00
2019-03-24T01:11:06.941Z,103189.00
2019-03-24T01:12:42.320Z,103182.00
2019-03-24T01:14:17.730Z,103181.00
2019-03-24T01:15:53.463Z,103179.00
2019-03-24T01:17:28.854Z,103185.00
2019-03-24T01:19:04.238Z,103191.00
2019-03-24T01:20:39.628Z,103189.00
2019-03-24T01:22:15.010Z,103187.00
2019-03-24T01:23:50.396Z,103183.00
2019-03-24T01:25:26.660Z,103184.00
2019-03-24T01:27:02.043Z,103179.00
2019-03-24T01:28:37.423Z,103175.00
2019-03-24T01:30:13.225Z,103185.00
2019-03-24T01:31:48.608Z,103188.00
2019-03-24T01:33:23.997Z,103184.00
2019-03-24T01:35:00.456Z,103184.00
2019-03-24T01:36:36.789Z,103185.00
2019-03-24T01:38:12.170Z,103177.00
2019-03-24T01:39:47.570Z,103178.00
2019-03-24T01:41:23.020Z,103177.00
2019-03-24T01:42:58.435Z,103180.00
2019-03-24T01:44:33.822Z,103188.00
2019-03-24T01:46:09.202Z,103181.00
2019-03-24T01:47:44.592Z,103178.00
2019-03-24T01:51:33.804Z,103187.00
2019-03-24T01:53:09.535Z,103185.00
2019-03-24T01:54:44.923Z,103185.00
2019-03-24T01:56:20.310Z,103183.00
2019-03-24T01:57:55.715Z,103180.00
2019-03-24T01:59:31.096Z,103187.00
2019-03-24T02:01:06.492Z,103185.00
2019-03-24T02:02:41.894Z,103182.00
2019-03-24T02:04:17.288Z,103190.00
2019-03-24T02:05:52.686Z,103176.00
2019-03-24T02:07:28.077Z,103178.00
2019-03-24T02:09:04.616Z,103182.00
2019-03-24T02:10:41.909Z,103177.00
2019-03-24T02:12:17.370Z,103183.00
2019-03-24T02:13:52.772Z,103181.00
2019-03-24T02:15:28.221Z,103178.00
2019-03-24T02:17:03.609Z,103178.00
2019-03-24T02:18:39.002Z,103173.00
2019-03-24T02:20:14.938Z,103166.00
2019-03-24T02:21:50.361Z,103172.00
2019-03-24T02:23:25.768Z,103161.00
2019-03-24T02:25:01.142Z,103157.00
2019-03-24T02:26:36.538Z,103163.00
2019-03-24T02:28:11.924Z,103169.00
2019-03-24T02:29:47.313Z,103168.00
2019-03-24T02:31:22.719Z,103117.00
2019-03-24T02:32:59.171Z,103154.00
2019-03-24T02:34:34.581Z,103142.00
2019-03-24T02:36:09.979Z,103156.00
2019-03-24T02:37:45.372Z,103160.00
2019-03-24T02:39:20.792Z,103160.00
2019-03-24T02:40:56.193Z,103147.00
2019-03-24T02:42:31.597Z,103146.00
2019-03-24T02:44:07.020Z,103145.00
2019-03-24T02:45:42.665Z,103147.00
2019-03-24T02:47:18.053Z,103144.00
2019-03-24T02:48:53.449Z,103138.00
2019-03-24T02:50:28.835Z,103144.00
2019-03-24T02:52:04.480Z,103136.00
2019-03-24T02:53:40.136Z,103146.00
2019-03-24T02:55:15.745Z,103157.00
2019-03-24T02:56:51.088Z,103154.00
2019-03-24T02:58:26.653Z,103147.00
2019-03-24T03:00:02.047Z,103147.00
2019-03-24T03:01:37.713Z,103152.00
2019-03-24T03:03:13.122Z,103145.00
2019-03-24T03:04:48.507Z,103151.00
2019-03-24T03:06:23.902Z,103141.00
2019-03-24T03:07:59.285Z,103136.00
2019-03-24T03:09:34.762Z,103140.00
2019-03-24T03:11:10.182Z,103136.00
2019-03-24T03:12:47.713Z,103135.00
2019-03-24T03:14:22.665Z,103131.00
2019-03-24T03:15:58.073Z,103138.00
2019-03-24T03:17:33.471Z,103140.00
2019-03-24T03:19:10.035Z,103142.00
2019-03-24T03:20:45.436Z,103139.00
2019-03-24T03:22:20.823Z,103145.00
2019-03-24T03:23:56.484Z,103135.00
2019-03-24T03:25:32.313Z,103142.00
2019-03-24T03:27:07.730Z,103140.00
2019-03-24T03:28:43.113Z,103140.00
2019-03-24T03:30:18.783Z,103137.00
2019-03-24T03:31:54.180Z,103140.00
2019-03-24T03:33:29.828Z,103130.00
2019-03-24T03:35:07.523Z,103127.00
2019-03-24T03:36:42.949Z,103131.00
2019-03-24T03:38:18.360Z,103130.00
2019-03-24T03:39:57.785Z,103125.00
2019-03-24T03:41:30.934Z,103133.00
2019-03-24T03:43:06.608Z,103132.00
2019-03-24T03:44:41.994Z,103125.00
2019-03-24T03:46:17.392Z,103129.00
2019-03-24T03:47:52.775Z,103131.00
2019-03-24T03:49:28.189Z,103124.00
2019-03-24T03:51:03.609Z,103122.00
2019-03-24T03:52:39.008Z,103128.00
2019-03-24T03:54:14.395Z,103126.00
2019-03-24T03:55:49.796Z,103121.00
2019-03-24T03:57:25.195Z,103120.00
2019-03-24T03:59:00.616Z,103115.00
2019-03-24T04:00:37.513Z,103121.00
2019-03-24T04:02:12.903Z,103124.00
2019-03-24T04:03:48.305Z,103115.00
2019-03-24T04:05:23.677Z,103119.00
2019-03-24T04:06:59.071Z,103115.00
2019-03-24T04:08:34.451Z,103120.00
2019-03-24T04:10:11.012Z,103120.00
2019-03-24T04:11:46.348Z,103117.00
2019-03-24T04:13:21.746Z,103113.00
2019-03-24T04:14:57.164Z,103113.00
2019-03-24T04:16:33.042Z,103117.00
2019-03-24T04:18:08.441Z,103114.00
2019-03-24T04:19:43.841Z,103112.00
2019-03-24T04:21:19.259Z,103118.00
2019-03-24T04:22:54.631Z,103116.00
2019-03-24T04:24:30.048Z,103117.00
2019-03-24T04:26:05.428Z,103117.00
2019-03-24T04:27:40.837Z,103111.00
2019-03-24T04:29:16.394Z,103111.00
2019-03-24T04:30:51.835Z,103112.00
2019-03-24T04:32:27.229Z,103117.00
2019-03-24T04:34:03.608Z,103110.00
2019-03-24T04:35:39.029Z,103108.00
2019-03-24T04:37:14.422Z,103107.00
2019-03-24T04:38:49.817Z,103103.00
2019-03-24T04:40:25.203Z,103101.00
2019-03-24T04:42:00.621Z,103101.00
2019-03-24T04:43:35.992Z,103099.00
2019-03-24T04:45:11.893Z,103102.00
2019-03-24T04:46:47.293Z,103095.00
2019-03-24T04:48:22.680Z,103098.00
2019-03-24T04:49:58.079Z,103092.00
2019-03-24T04:51:34.303Z,103096.00
2019-03-24T04:53:09.715Z,103099.00
2019-03-24T04:54:45.104Z,103092.00
2019-03-24T04:56:20.501Z,103096.00
2019-03-24T04:57:56.327Z,103093.00
2019-03-24T04:59:31.715Z,103093.00
2019-03-24T05:01:07.190Z,103093.00
2019-03-24T05:02:42.580Z,103093.00
2019-03-24T05:04:17.985Z,103092.00
2019-03-24T05:05:53.545Z,103087.00
2019-03-24T05:07:29.276Z,103092.00
2019-03-24T05:09:05.578Z,103089.00
2019-03-24T05:10:42.167Z,103091.00
2019-03-24T05:12:17.558Z,103090.00
2019-03-24T05:13:52.952Z,103076.00
2019-03-24T05:15:28.351Z,103096.00
2019-03-24T05:17:04.352Z,103082.00
2019-03-24T05:18:39.733Z,103085.00
2019-03-24T05:20:15.135Z,103088.00
2019-03-24T05:21:50.531Z,103086.00
2019-03-24T05:23:26.189Z,103071.00
2019-03-24T05:25:01.587Z,103075.00
2019-03-24T05:26:36.990Z,103075.00
2019-03-24T05:28:12.642Z,103073.00
2019-03-24T05:29:48.028Z,103069.00
2019-03-24T05:31:23.461Z,103071.00
2019-03-24T05:32:58.855Z,103069.00
2019-03-24T05:34:34.240Z,103071.00
2019-03-24T05:36:09.649Z,103071.00
2019-03-24T05:37:45.115Z,103064.00
2019-03-24T05:39:20.511Z,103062.00
2019-03-24T05:40:56.159Z,103065.00
2019-03-24T05:42:31.554Z,103069.00
2019-03-24T05:44:06.956Z,103064.00
2019-03-24T05:45:42.401Z,103067.00
2019-03-24T05:47:17.780Z,103063.00
2019-03-24T05:48:53.155Z,103062.00
2019-03-24T05:50:28.548Z,103069.00
2019-03-24T05:52:04.289Z,103072.00
2019-03-24T05:53:40.718Z,103027.00
2019-03-24T05:55:16.168Z,103066.00
2019-03-24T05:56:51.521Z,103067.00
2019-03-24T05:58:26.927Z,103068.00
2019-03-24T06:00:02.334Z,103065.00
2019-03-24T06:01:37.789Z,103067.00
2019-03-24T06:03:13.175Z,103064.00
2019-03-24T06:04:48.569Z,103068.00
2019-03-24T06:06:23.961Z,103060.00
2019-03-24T06:07:59.363Z,103064.00
2019-03-24T06:09:35.167Z,103062.00
2019-03-24T06:11:10.564Z,103064.00
2019-03-24T06:12:45.977Z,103067.00
2019-03-24T06:14:21.368Z,103057.00
2019-03-24T06:15:56.768Z,103070.00
2019-03-24T06:17:32.171Z,103069.00
2019-03-24T06:19:07.596Z,103068.00
2019-03-24T06:20:42.979Z,103074.00
2019-03-24T06:22:18.377Z,103074.00
2019-03-24T06:23:54.739Z,103072.00
2019-03-24T06:25:30.149Z,103073.00
2019-03-24T06:27:05.621Z,103076.00
2019-03-24T06:28:41.019Z,103073.00
2019-03-24T06:30:19.878Z,103073.00
2019-03-24T06:31:55.279Z,103067.00
2019-03-24T06:33:30.681Z,103076.00
2019-03-24T06:35:07.997Z,103070.00
2019-03-24T06:36:43.395Z,103076.00
2019-03-24T06:38:18.801Z,103071.00
2019-03-24T06:39:54.195Z,103073.00
2019-03-24T06:41:29.589Z,103081.00
2019-03-24T06:43:06.063Z,103074.00
2019-03-24T06:44:41.458Z,103075.00
2019-03-24T06:46:16.845Z,103068.00
2019-03-24T06:47:57.874Z,103075.00
2019-03-24T06:49:29.324Z,103064.00
2019-03-24T06:51:05.302Z,103071.00
2019-03-24T06:52:40.700Z,103074.00
2019-03-24T06:54:16.086Z,103069.00
2019-03-24T06:55:51.491Z,103073.00
2019-03-24T06:57:26.894Z,103076.00
2019-03-24T06:59:02.311Z,103069.00
2019-03-24T07:00:38.678Z,103075.00
2019-03-24T07:02:14.090Z,103079.00
2019-03-24T07:03:49.477Z,103066.00
2019-03-24T07:05:24.875Z,103069.00
2019-03-24T07:07:01.358Z,103075.00
2019-03-24T07:08:37.005Z,103062.00
2019-03-24T07:10:13.247Z,103066.00
2019-03-24T07:11:48.657Z,103063.00
2019-03-24T07:13:25.125Z,103063.00
2019-03-24T07:15:00.510Z,103061.00
2019-03-24T07:16:35.894Z,103055.00
2019-03-24T07:18:11.289Z,103055.00
2019-03-24T07:19:46.685Z,103051.00
2019-03-24T07:21:22.072Z,103052.00
2019-03-24T07:22:57.502Z,103052.00
2019-03-24T07:24:32.843Z,103053.00
2019-03-24T07:26:08.231Z,103052.00
2019-03-24T07:27:43.651Z,103059.00
2019-03-24T07:29:19.042Z,103054.00
2019-03-24T07:30:54.420Z,103055.00
2019-03-24T07:32:29.814Z,103051.00
2019-03-24T07:34:05.784Z,103051.00
2019-03-24T07:35:41.157Z,103057.00
2019-03-24T07:37:16.571Z,103050.00
2019-03-24T07:38:51.958Z,103054.00
2019-03-24T07:40:27.363Z,103053.00
2019-03-24T07:42:02.831Z,103049.00
2019-03-24T07:43:38.244Z,103050.00
2019-03-24T07:45:14.420Z,103054.00
2019-03-24T07:46:49.814Z,103049.00
2019-03-24T07:48:25.488Z,103051.00
2019-03-24T07:50:01.852Z,103052.00
2019-03-24T07:51:37.244Z,103047.00
2019-03-24T07:53:12.641Z,103036.00
2019-03-24T07:54:48.036Z,103038.00
2019-03-24T07:56:24.415Z,103036.00
2019-03-24T07:58:00.069Z,103032.00
2019-03-24T07:59:35.806Z,103031.00
2019-03-24T08:01:11.508Z,103032.00
2019-03-24T08:02:51.988Z,103030.00
2019-03-24T08:04:27.378Z,103030.00
2019-03-24T08:06:02.778Z,103025.00
2019-03-24T08:07:38.188Z,103018.00
2019-03-24T08:09:13.562Z,103022.00
2019-03-24T08:10:49.016Z,103018.00
2019-03-24T08:12:24.400Z,103014.00
2019-03-24T08:13:59.792Z,103015.00
2019-03-24T08:15:36.133Z,103014.00
2019-03-24T08:17:11.528Z,103018.00
2019-03-24T08:18:46.937Z,103015.00
2019-03-24T08:20:22.324Z,103010.00
2019-03-24T08:21:57.719Z,103012.00
2019-03-24T08:23:33.119Z,103012.00
2019-03-24T08:25:08.512Z,103005.00
2019-03-24T08:26:43.907Z,103005.00
2019-03-24T08:28:19.318Z,103004.00
2019-03-24T08:29:54.681Z,103006.00
2019-03-24T08:31:30.075Z,103006.00
2019-03-24T08:33:06.441Z,103009.00
2019-03-24T08:34:41.835Z,103003.00
2019-03-24T08:36:17.220Z,103009.00
2019-03-24T08:37:52.631Z,103006.00
2019-03-24T08:39:28.015Z,103000.00
2019-03-24T08:41:03.437Z,103004.00
2019-03-24T08:42:38.797Z,102993.00
2019-03-24T08:44:14.203Z,102993.00
2019-03-24T08:45:49.592Z,102987.00
2019-03-24T08:47:24.985Z,102989.00
2019-03-24T08:49:00.399Z,102989.00
2019-03-24T08:50:35.797Z,102989.00
2019-03-24T08:52:11.188Z,102992.00
2019-03-24T08:53:46.583Z,102986.00
2019-03-24T08:55:22.004Z,102993.00
2019-03-24T08:56:57.397Z,102986.00
2019-03-24T08:58:32.813Z,102984.00
2019-03-24T09:00:08.906Z,102987.00
2019-03-24T09:01:44.303Z,102984.00
2019-03-24T09:03:19.695Z,102981.00
2019-03-24T09:04:55.091Z,102977.00
2019-03-24T09:06:30.485Z,102979.00
2019-03-24T09:08:06.114Z,102986.00
2019-03-24T09:09:41.618Z,102982.00
2019-03-24T09:11:16.994Z,102979.00
2019-03-24T09:12:52.371Z,102981.00
2019-03-24T09:14:27.784Z,102967.00
2019-03-24T09:16:03.183Z,102977.00
2019-03-24T09:17:41.108Z,102974.00
2019-03-24T09:19:15.795Z,102977.00
2019-03-24T09:20:51.185Z,102979.00
2019-03-24T09:22:26.589Z,102964.00
2019-03-24T09:24:01.981Z,102975.00
2019-03-24T09:25:37.477Z,102981.00
2019-03-24T09:27:12.937Z,102980.00
2019-03-24T09:28:48.343Z,102984.00
2019-03-24T09:30:34.928Z,102986.00
2019-03-24T09:32:10.311Z,102975.00
2019-03-24T09:33:45.706Z,102976.00
2019-03-24T09:35:21.099Z,102976.00
2019-03-24T09:36:56.479Z,102971.00
2019-03-24T09:38:31.857Z,102971.00
2019-03-24T09:40:11.013Z,102974.00
2019-03-24T09:41:46.407Z,102979.00
2019-03-24T09:43:21.778Z,102968.00
2019-03-24T09:44:57.403Z,102972.00
2019-03-24T09:46:32.788Z,102971.00
2019-03-24T09:48:08.189Z,102964.00
2019-03-24T09:49:43.852Z,102959.00
2019-03-24T09:51:21.098Z,102961.00
2019-03-24T09:52:56.786Z,102966.00
2019-03-24T09:54:32.192Z,102968.00
2019-03-24T09:56:07.594Z,102959.00
2019-03-24T09:57:42.981Z,102964.00
2019-03-24T09:59:18.654Z,102954.00
2019-03-24T10:00:55.097Z,102948.00
2019-03-24T10:02:30.479Z,102953.00
2019-03-24T10:04:05.853Z,102939.00
2019-03-24T10:05:41.855Z,102943.00
2019-03-24T10:07:17.233Z,102940.00
2019-03-24T10:08:52.637Z,102937.00
2019-03-24T10:10:28.029Z,102934.00
2019-03-24T10:12:03.421Z,102921.00
2019-03-24T10:13:38.812Z,102921.00
2019-03-24T10:15:14.283Z,102926.00
2019-03-24T10:16:49.680Z,102923.00
2019-03-24T10:18:25.075Z,102927.00
2019-03-24T10:20:00.488Z,102919.00
2019-03-24T10:21:35.863Z,102921.00
2019-03-24T10:23:12.355Z,102918.00
2019-03-24T10:24:48.008Z,102915.00
2019-03-24T10:26:23.406Z,102912.00
2019-03-24T10:27:58.800Z,102926.00
2019-03-24T10:29:34.210Z,102913.00
2019-03-24T10:31:10.691Z,102917.00
2019-03-24T10:32:46.065Z,102911.00
2019-03-24T10:34:21.439Z,102909.00
2019-03-24T10:35:57.080Z,102916.00
2019-03-24T10:37:32.454Z,102904.00
2019-03-24T10:39:08.002Z,102909.00
2019-03-24T10:40:43.391Z,102907.00
2019-03-24T10:42:18.816Z,102907.00
2019-03-24T10:43:54.203Z,102914.00
2019-03-24T10:45:29.603Z,102906.00
2019-03-24T10:47:05.248Z,102908.00
2019-03-24T10:48:40.639Z,102907.00
2019-03-24T10:50:16.170Z,102903.00
2019-03-24T10:51:51.560Z,102915.00
2019-03-24T10:53:26.951Z,102901.00
2019-03-24T10:55:02.603Z,102896.00
2019-03-24T10:56:37.979Z,102888.00
2019-03-24T10:58:14.336Z,102895.00
2019-03-24T10:59:49.745Z,102889.00
2019-03-24T11:01:25.483Z,102890.00
2019-03-24T11:03:00.868Z,102884.00
2019-03-24T11:04:36.258Z,102881.00
2019-03-24T11:06:11.650Z,102876.00
2019-03-24T11:07:47.036Z,102876.00
2019-03-24T11:09:22.431Z,102866.00
2019-03-24T11:10:57.820Z,102868.00
2019-03-24T11:12:33.197Z,102865.00
2019-03-24T11:14:08.890Z,102863.00
2019-03-24T11:15:44.295Z,102859.00
2019-03-24T11:17:19.661Z,102869.00
2019-03-24T11:18:55.050Z,102860.00
2019-03-24T11:20:30.449Z,102860.00
2019-03-24T11:22:05.827Z,102859.00
2019-03-24T11:23:41.207Z,102864.00
2019-03-24T11:25:16.670Z,102860.00
2019-03-24T11:26:52.300Z,102860.00
2019-03-24T11:28:27.692Z,102853.00
2019-03-24T11:30:03.154Z,102849.00
2019-03-24T11:31:38.543Z,102850.00
2019-03-24T11:33:14.427Z,102844.00
2019-03-24T11:34:49.804Z,102841.00
2019-03-24T11:36:25.210Z,102838.00
2019-03-24T11:38:00.597Z,102834.00
2019-03-24T11:39:35.972Z,102832.00
2019-03-24T11:41:11.360Z,102828.00
2019-03-24T11:42:46.756Z,102834.00
2019-03-24T11:44:22.145Z,102833.00
2019-03-24T11:45:57.548Z,102832.00
2019-03-24T11:47:33.174Z,102829.00
2019-03-24T11:49:20.200Z,102824.00
2019-03-24T11:50:55.864Z,102813.00
2019-03-24T11:52:31.232Z,102812.00
2019-03-24T11:54:06.632Z,102818.00
2019-03-24T11:55:42.013Z,102806.00
2019-03-24T11:57:17.390Z,102807.00
2019-03-24T11:58:52.854Z,102804.00
2019-03-24T12:00:35.036Z,102810.00
2019-03-24T12:02:11.377Z,102802.00
2019-03-24T12:03:46.769Z,102802.00
2019-03-24T12:05:22.157Z,102800.00
2019-03-24T12:06:57.681Z,102799.00
2019-03-24T12:08:33.031Z,102804.00
2019-03-24T12:10:09.950Z,102796.00
2019-03-24T12:11:45.339Z,102798.00
2019-03-24T12:13:20.717Z,102797.00
2019-03-24T12:14:56.136Z,102792.00
2019-03-24T12:16:31.783Z,102785.00
2019-03-24T12:18:07.161Z,102783.00
2019-03-24T12:19:43.629Z,102787.00
2019-03-24T12:21:19.301Z,102781.00
2019-03-24T12:22:54.676Z,102781.00
2019-03-24T12:24:30.079Z,102771.00
2019-03-24T12:26:05.476Z,102777.00
2019-03-24T12:27:40.860Z,102767.00
2019-03-24T12:29:16.506Z,102767.00
2019-03-24T12:30:51.916Z,102768.00
2019-03-24T12:32:27.292Z,102763.00
2019-03-24T12:34:02.674Z,102761.00
2019-03-24T12:35:38.080Z,102757.00
2019-03-24T12:37:13.463Z,102765.00
2019-03-24T12:38:48.844Z,102766.00
2019-03-24T12:40:24.231Z,102756.00
2019-03-24T12:41:59.862Z,102754.00
2019-03-24T12:43:35.239Z,102753.00
2019-03-24T12:45:12.652Z,102758.00
2019-03-24T12:46:48.043Z,102746.00
2019-03-24T12:48:23.537Z,102746.00
2019-03-24T12:50:08.342Z,102736.00
2019-03-24T12:51:36.240Z,102733.00
2019-03-24T12:53:11.619Z,102731.00
2019-03-24T12:54:47.002Z,102730.00
2019-03-24T12:56:22.408Z,102726.00
2019-03-24T12:57:58.038Z,102720.00
2019-03-24T12:59:33.416Z,102712.00
2019-03-24T13:01:08.805Z,102719.00
2019-03-24T13:02:45.312Z,102724.00
2019-03-24T13:04:20.715Z,102727.00
2019-03-24T13:05:56.100Z,102717.00
2019-03-24T13:07:31.488Z,102720.00
2019-03-24T13:09:08.537Z,102726.00
2019-03-24T13:10:45.064Z,102719.00
2019-03-24T13:12:20.465Z,102730.00
2019-03-24T13:13:55.846Z,102720.00
2019-03-24T13:15:31.239Z,102720.00
2019-03-24T13:17:06.623Z,102716.00
2019-03-24T13:18:42.009Z,102723.00
2019-03-24T13:20:26.712Z,102719.00
2019-03-24T13:21:54.750Z,102714.00
2019-03-24T13:23:30.148Z,102715.00
2019-03-24T13:25:08.024Z,102712.00
2019-03-24T13:26:43.428Z,102713.00
2019-03-24T13:28:18.833Z,102707.00
2019-03-24T13:29:54.200Z,102705.00
2019-03-24T13:31:29.588Z,102709.00
2019-03-24T13:33:05.070Z,102708.00
2019-03-24T13:34:40.483Z,102694.00
2019-03-24T13:36:15.974Z,102701.00
2019-03-24T13:37:51.334Z,102699.00
2019-03-24T13:39:26.743Z,102701.00
2019-03-24T13:41:02.131Z,102685.00
2019-03-24T13:42:37.544Z,102687.00
2019-03-24T13:44:12.953Z,102696.00
2019-03-24T13:45:48.338Z,102685.00
2019-03-24T13:47:23.727Z,102678.00
2019-03-24T13:48:59.106Z,102683.00
2019-03-24T13:50:34.498Z,102680.00
2019-03-24T13:52:10.152Z,102677.00
2019-03-24T13:53:46.060Z,102675.00
2019-03-24T13:55:21.447Z,102673.00
2019-03-24T13:56:56.910Z,102672.00
2019-03-24T13:58:32.294Z,102670.00
2019-03-24T14:00:10.244Z,102674.00
2019-03-24T14:01:46.259Z,102666.00
2019-03-24T14:03:21.640Z,102667.00
2019-03-24T14:04:57.017Z,102660.00
2019-03-24T14:06:32.408Z,102666.00
2019-03-24T14:08:07.791Z,102661.00
2019-03-24T14:09:43.176Z,102659.00
2019-03-24T14:11:18.576Z,102664.00
2019-03-24T14:12:53.991Z,102657.00
2019-03-24T14:14:29.389Z,102666.00
2019-03-24T14:16:04.787Z,102666.00
2019-03-24T14:17:40.423Z,102663.00
2019-03-24T14:19:16.882Z,102654.00
2019-03-24T14:20:52.253Z,102669.00
2019-03-24T14:22:27.642Z,102658.00
2019-03-24T14:24:03.018Z,102665.00
2019-03-24T14:25:38.412Z,102660.00
2019-03-24T14:27:13.819Z,102652.00
2019-03-24T14:28:49.241Z,102658.00
2019-03-24T14:30:46.519Z,102663.00
2019-03-24T14:32:22.093Z,102648.00
2019-03-24T14:33:57.492Z,102655.00
2019-03-24T14:35:32.870Z,102655.00
2019-03-24T14:37:08.268Z,102647.00
2019-03-24T14:38:43.657Z,102656.00
2019-03-24T14:40:19.036Z,102645.00
2019-03-24T14:41:54.440Z,102643.00
2019-03-24T14:43:29.811Z,102641.00
2019-03-24T14:45:08.255Z,102634.00
2019-03-24T14:46:43.658Z,102626.00
2019-03-24T14:48:19.054Z,102633.00
2019-03-24T14:49:54.413Z,102638.00
2019-03-24T14:51:29.843Z,102627.00
2019-03-24T14:53:05.526Z,102625.00
2019-03-24T14:54:40.902Z,102618.00
2019-03-24T14:56:16.801Z,102618.00
2019-03-24T14:57:52.193Z,102627.00
2019-03-24T14:59:27.564Z,102617.00
2019-03-24T15:01:02.953Z,102633.00
2019-03-24T15:02:40.860Z,102632.00
2019-03-24T15:04:16.960Z,102631.00
2019-03-24T15:05:52.349Z,102627.00
2019-03-24T15:07:27.755Z,102623.00
2019-03-24T15:09:04.732Z,102630.00
2019-03-24T15:10:40.188Z,102638.00
2019-03-24T15:12:15.575Z,102625.00
2019-03-24T15:13:50.968Z,102630.00
2019-03-24T15:15:26.640Z,102630.00
2019-03-24T15:17:02.039Z,102618.00
2019-03-24T15:18:37.404Z,102621.00
2019-03-24T15:20:12.850Z,102626.00
2019-03-24T15:21:49.212Z,102621.00
2019-03-24T15:23:24.599Z,102624.00
2019-03-24T15:24:59.997Z,102617.00
2019-03-24T15:26:35.371Z,102616.00
2019-03-24T15:28:10.759Z,102609.00
2019-03-24T15:29:46.461Z,102621.00
2019-03-24T15:31:21.851Z,102614.00
2019-03-24T15:32:57.233Z,102612.00
2019-03-24T15:34:32.615Z,102611.00
2019-03-24T15:36:07.993Z,102604.00
2019-03-24T15:37:43.389Z,102603.00
2019-03-24T15:39:18.773Z,102602.00
2019-03-24T15:40:54.161Z,102603.00
2019-03-24T15:42:29.555Z,102597.00
2019-03-24T15:44:05.097Z,102612.00
2019-03-24T15:45:41.453Z,102602.00
2019-03-24T15:47:16.838Z,102600.00
2019-03-24T15:48:52.230Z,102603.00
2019-03-24T15:50:27.646Z,102599.00
2019-03-24T15:52:03.063Z,102591.00
2019-03-24T15:53:38.706Z,102593.00
2019-03-24T15:55:14.162Z,102589.00
2019-03-24T15:56:49.544Z,102589.00
2019-03-24T15:58:24.957Z,102580.00
2019-03-24T16:00:00.457Z,102579.00
2019-03-24T16:01:35.791Z,102581.00
2019-03-24T16:03:11.439Z,102580.00
2019-03-24T16:04:46.828Z,102579.00
2019-03-24T16:06:22.200Z,102578.00
2019-03-24T16:07:57.594Z,102576.00
2019-03-24T16:09:32.974Z,102575.00
2019-03-24T16:11:09.336Z,102583.00
2019-03-24T16:12:44.728Z,102574.00
2019-03-24T16:14:20.934Z,102573.00
2019-03-24T16:15:56.325Z,102576.00
2019-03-24T16:17:31.716Z,102571.00
2019-03-24T16:19:07.113Z,102567.00
2019-03-24T16:20:42.521Z,102561.00
2019-03-24T16:22:17.905Z,102564.00
2019-03-24T16:23:53.275Z,102558.00
2019-03-24T16:25:28.665Z,102572.00
2019-03-24T16:27:04.060Z,102565.00
2019-03-24T16:28:39.445Z,102568.00
2019-03-24T16:30:14.908Z,102564.00
2019-03-24T16:31:51.167Z,102551.00
2019-03-24T16:33:26.830Z,102556.00
2019-03-24T16:35:03.463Z,102562.00
2019-03-24T16:36:38.873Z,102555.00
2019-03-24T16:38:14.269Z,102549.00
2019-03-24T16:39:49.642Z,102551.00
2019-03-24T16:41:25.309Z,102562.00
2019-03-24T16:43:00.711Z,102556.00
2019-03-24T16:44:37.127Z,102560.00
2019-03-24T16:46:12.515Z,102554.00
2019-03-24T16:47:48.125Z,102553.00
2019-03-24T16:49:23.531Z,102551.00
2019-03-24T16:50:59.182Z,102554.00
2019-03-24T16:52:36.372Z,102557.00
2019-03-24T16:54:12.008Z,102555.00
2019-03-24T16:55:47.408Z,102558.00
2019-03-24T16:57:23.042Z,102549.00
2019-03-24T16:58:58.426Z,102549.00
2019-03-24T17:00:34.081Z,102546.00
2019-03-24T17:02:09.461Z,102555.00
2019-03-24T17:03:45.099Z,102550.00
2019-03-24T17:05:20.485Z,102546.00
2019-03-24T17:06:55.878Z,102541.00
2019-03-24T17:08:31.277Z,102538.00
2019-03-24T17:10:08.579Z,102541.00
2019-03-24T17:11:43.968Z,102539.00
2019-03-24T17:13:19.368Z,102534.00
2019-03-24T17:14:54.731Z,102534.00
2019-03-24T17:16:30.117Z,102546.00
2019-03-24T17:18:06.226Z,102542.00
2019-03-24T17:19:41.608Z,102544.00
2019-03-24T17:21:18.291Z,102536.00
2019-03-24T17:22:53.688Z,102534.00
2019-03-24T17:24:29.091Z,102543.00
2019-03-24T17:26:04.540Z,102539.00
2019-03-24T17:27:39.939Z,102548.00
2019-03-24T17:29:15.335Z,102539.00
2019-03-24T17:30:50.716Z,102544.00
2019-03-24T17:32:26.102Z,102541.00
2019-03-24T17:34:01.510Z,102548.00
2019-03-24T17:35:36.904Z,102552.00
2019-03-24T17:37:12.281Z,102546.00
2019-03-24T17:38:47.960Z,102548.00
2019-03-24T17:40:24.343Z,102542.00
2019-03-24T17:42:00.785Z,102550.00
2019-03-24T17:43:36.186Z,102544.00
2019-03-24T17:45:13.570Z,102548.00
2019-03-24T17:46:49.904Z,102541.00
2019-03-24T17:48:25.298Z,102551.00
2019-03-24T17:50:00.959Z,102546.00
2019-03-24T17:51:36.600Z,102554.00
2019-03-24T17:53:11.995Z,102548.00
2019-03-24T17:54:47.384Z,102548.00
2019-03-24T17:56:23.040Z,102542.00
2019-03-24T17:57:58.452Z,102536.00
2019-03-24T17:59:33.834Z,102535.00
2019-03-24T18:01:09.221Z,102529.00
2019-03-24T18:02:44.597Z,102528.00
2019-03-24T18:04:24.843Z,102527.00
2019-03-24T18:05:59.532Z,102520.00
2019-03-24T18:07:34.174Z,102523.00
2019-03-24T18:09:09.845Z,102520.00
2019-03-24T18:10:46.969Z,102523.00
2019-03-24T18:12:22.298Z,102521.00
2019-03-24T18:13:57.690Z,102524.00